createdAt,value
2017-02-12T00:00:59.021Z,66.91
2017-02-12T00:01:59.020Z,66.44
2017-02-12T00:02:58.997Z,66.44
2017-02-12T00:03:58.976Z,66.72
2017-02-12T00:04:58.959Z,66.44
2017-02-12T00:05:58.939Z,66.82
2017-02-12T00:06:58.924Z,66.82
2017-02-12T00:07:58.905Z,66.53
2017-02-12T00:08:58.892Z,67
2017-02-12T00:09:58.870Z,66.63
2017-02-12T00:10:58.865Z,67
2017-02-12T00:11:58.832Z,67.19
2017-02-12T00:12:58.861Z,67.29
2017-02-12T00:13:58.808Z,66.91
2017-02-12T00:14:58.801Z,66.63
2017-02-12T00:15:58.783Z,66.63
2017-02-12T00:16:58.758Z,66.82
2017-02-12T00:17:58.733Z,66.35
2017-02-12T00:18:58.725Z,66.35
2017-02-12T00:19:58.697Z,66.91
2017-02-12T00:20:58.697Z,66.91
2017-02-12T00:21:58.667Z,67
2017-02-12T00:22:58.269Z,66.72
2017-02-12T00:23:58.639Z,67
2017-02-12T00:24:58.626Z,66.91
2017-02-12T00:25:58.605Z,67
2017-02-12T00:26:58.600Z,66.91
2017-02-12T00:27:58.577Z,66.91
2017-02-12T00:28:58.560Z,67.66
2017-02-12T00:29:58.534Z,67.1
2017-02-12T00:30:58.525Z,67.29
2017-02-12T00:31:58.511Z,67.29
2017-02-12T00:32:58.492Z,67.29
2017-02-12T00:33:58.486Z,67.19
2017-02-12T00:34:58.461Z,67.29
2017-02-12T00:35:58.442Z,67.47
2017-02-12T00:36:58.424Z,67.38
2017-02-12T00:37:58.411Z,67.76
2017-02-12T00:38:58.400Z,67
2017-02-12T00:39:58.371Z,67
2017-02-12T00:40:58.360Z,66.91
2017-02-12T00:41:58.338Z,67.1
2017-02-12T00:42:58.327Z,67.57
2017-02-12T00:43:58.312Z,67.57
2017-02-12T00:44:58.294Z,67.1
2017-02-12T00:45:58.287Z,67.47
2017-02-12T00:46:58.251Z,67
2017-02-12T00:47:58.244Z,67.57
2017-02-12T00:48:58.235Z,67.47
2017-02-12T00:49:58.220Z,67.47
2017-02-12T00:50:58.195Z,66.91
2017-02-12T00:51:58.171Z,67.1
2017-02-12T00:52:58.159Z,67.29
2017-02-12T00:53:58.145Z,67.66
2017-02-12T00:54:58.136Z,67.47
2017-02-12T00:55:58.103Z,67.57
2017-02-12T00:56:58.094Z,67.47
2017-02-12T00:57:58.072Z,67.47
2017-02-12T00:58:58.082Z,67.66
2017-02-12T00:59:58.038Z,67.47
2017-02-12T01:00:58.029Z,67.57
2017-02-12T01:01:58.011Z,67
2017-02-12T01:02:58.003Z,67.47
2017-02-12T01:03:57.980Z,67.66
2017-02-12T01:04:57.957Z,67.95
2017-02-12T01:05:57.944Z,67.76
2017-02-12T01:06:57.928Z,67.38
2017-02-12T01:07:57.925Z,68.14
2017-02-12T01:08:57.897Z,67.76
2017-02-12T01:09:57.868Z,67.76
2017-02-12T01:10:57.863Z,67.57
2017-02-12T01:11:57.841Z,68.04
2017-02-12T01:12:57.838Z,67.76
2017-02-12T01:13:57.813Z,67.76
2017-02-12T01:14:57.801Z,67.76
2017-02-12T01:15:57.781Z,67.76
2017-02-12T01:16:57.799Z,67.57
2017-02-12T01:17:57.746Z,68.23
2017-02-12T01:18:57.745Z,68.23
2017-02-12T01:19:57.713Z,68.04
2017-02-12T01:20:57.697Z,68.23
2017-02-12T01:21:57.674Z,68.23
2017-02-12T01:22:57.668Z,68.33
2017-02-12T01:23:57.644Z,68.14
2017-02-12T01:24:57.621Z,67.66
2017-02-12T01:25:57.618Z,67.47
2017-02-12T01:26:57.596Z,67.66
2017-02-12T01:27:57.584Z,67.76
2017-02-12T01:28:57.560Z,67.47
2017-02-12T01:29:57.557Z,67
2017-02-12T01:30:57.531Z,67.1
2017-02-12T01:31:57.527Z,67.38
2017-02-12T01:32:57.498Z,67.38
2017-02-12T01:33:57.479Z,67.19
2017-02-12T01:34:57.467Z,67.1
2017-02-12T01:35:57.446Z,67.1
2017-02-12T01:36:57.430Z,67.38
2017-02-12T01:37:57.404Z,67.29
2017-02-12T01:38:57.397Z,67.19
2017-02-12T01:39:57.386Z,67.19
2017-02-12T01:40:57.355Z,67.19
2017-02-12T01:41:57.344Z,67.57
2017-02-12T01:42:57.321Z,67.1
2017-02-12T01:43:57.319Z,67.57
2017-02-12T01:44:57.295Z,67.38
2017-02-12T01:45:57.280Z,67.57
2017-02-12T01:46:57.252Z,67.85
2017-02-12T01:47:57.253Z,67.85
2017-02-12T01:48:57.228Z,67.76
2017-02-12T01:49:57.211Z,67.38
2017-02-12T01:50:57.187Z,67.19
2017-02-12T01:51:57.181Z,67.47
2017-02-12T01:52:57.159Z,67.1
2017-02-12T01:53:57.145Z,67.1
2017-02-12T01:54:57.137Z,67.19
2017-02-12T01:55:57.103Z,67.1
2017-02-12T01:56:57.092Z,67.57
2017-02-12T01:57:57.079Z,67.47
2017-02-12T01:58:57.064Z,67.95
2017-02-12T01:59:56.649Z,67.66
2017-02-12T02:00:57.035Z,67.66
2017-02-12T02:01:57.011Z,67.76
2017-02-12T02:02:56.987Z,67.76
2017-02-12T02:03:56.984Z,67.66
2017-02-12T02:04:56.963Z,67.95
2017-02-12T02:05:56.949Z,67.38
2017-02-12T02:06:56.928Z,67.38
2017-02-12T02:07:56.913Z,67.38
2017-02-12T02:08:56.894Z,67.57
2017-02-12T02:09:56.884Z,67.95
2017-02-12T02:10:56.864Z,67.85
2017-02-12T02:11:56.850Z,67.47
2017-02-12T02:12:56.837Z,67.95
2017-02-12T02:13:56.803Z,67.76
2017-02-12T02:14:56.802Z,67.76
2017-02-12T02:15:56.774Z,67.57
2017-02-12T02:16:56.762Z,67.66
2017-02-12T02:17:56.749Z,67.57
2017-02-12T02:18:56.729Z,68.04
2017-02-12T02:19:56.716Z,67.76
2017-02-12T02:20:56.690Z,67.38
2017-02-12T02:21:56.685Z,67.76
2017-02-12T02:22:56.670Z,67.85
2017-02-12T02:23:56.654Z,67.38
2017-02-12T02:24:56.632Z,67.47
2017-02-12T02:25:56.604Z,67.57
2017-02-12T02:26:56.603Z,67
2017-02-12T02:27:56.580Z,67.19
2017-02-12T02:28:56.566Z,67
2017-02-12T02:29:56.540Z,67.38
2017-02-12T02:30:56.540Z,67
2017-02-12T02:31:56.504Z,67.19
2017-02-12T02:32:56.506Z,67.47
2017-02-12T02:33:56.476Z,67.29
2017-02-12T02:34:56.463Z,67.1
2017-02-12T02:35:56.447Z,67.47
2017-02-12T02:36:56.426Z,67.1
2017-02-12T02:37:56.405Z,67.57
2017-02-12T02:38:56.405Z,67.57
2017-02-12T02:39:56.386Z,66.72
2017-02-12T02:40:56.357Z,66.63
2017-02-12T02:41:56.345Z,67.47
2017-02-12T02:42:56.325Z,67.47
2017-02-12T02:43:56.322Z,66.82
2017-02-12T02:44:56.298Z,66.63
2017-02-12T02:45:56.282Z,66.82
2017-02-12T02:46:56.263Z,66.91
2017-02-12T02:47:56.253Z,66.91
2017-02-12T02:48:56.231Z,66.25
2017-02-12T02:49:56.221Z,67
2017-02-12T02:50:56.197Z,66.82
2017-02-12T02:51:56.190Z,66.35
2017-02-12T02:52:56.158Z,67.19
2017-02-12T02:53:56.150Z,66.44
2017-02-12T02:54:56.135Z,66.91
2017-02-12T02:55:56.124Z,67
2017-02-12T02:56:56.096Z,67
2017-02-12T02:57:56.073Z,66.82
2017-02-12T02:58:56.065Z,67
2017-02-12T02:59:56.049Z,66.91
2017-02-12T03:00:56.027Z,66.91
2017-02-12T03:01:56.019Z,67
2017-02-12T03:02:56.001Z,67
2017-02-12T03:03:55.989Z,67
2017-02-12T03:04:55.965Z,66.91
2017-02-12T03:05:55.957Z,66.82
2017-02-12T03:06:55.931Z,67
2017-02-12T03:07:55.927Z,67.57
2017-02-12T03:08:55.906Z,67
2017-02-12T03:09:55.898Z,66.91
2017-02-12T03:10:55.861Z,66.82
2017-02-12T03:11:55.843Z,66.44
2017-02-12T03:12:55.833Z,67.19
2017-02-12T03:13:55.827Z,66.53
2017-02-12T03:14:55.804Z,66.72
2017-02-12T03:15:55.811Z,67.1
2017-02-12T03:16:55.768Z,66.91
2017-02-12T03:17:55.758Z,67
2017-02-12T03:18:55.737Z,67.19
2017-02-12T03:19:55.719Z,66.91
2017-02-12T03:20:55.695Z,66.53
2017-02-12T03:21:55.696Z,66.91
2017-02-12T03:22:55.659Z,67
2017-02-12T03:23:55.658Z,66.82
2017-02-12T03:24:55.637Z,66.91
2017-02-12T03:25:55.625Z,66.91
2017-02-12T03:26:55.594Z,66.82
2017-02-12T03:27:55.577Z,66.82
2017-02-12T03:28:55.576Z,66.91
2017-02-12T03:29:55.553Z,66.35
2017-02-12T03:30:55.538Z,66.91
2017-02-12T03:31:55.512Z,67.1
2017-02-12T03:32:55.509Z,66.44
2017-02-12T03:33:55.478Z,66.82
2017-02-12T03:34:55.477Z,66.82
2017-02-12T03:35:55.445Z,66.63
2017-02-12T03:36:55.441Z,66.72
2017-02-12T03:37:55.413Z,66.35
2017-02-12T03:38:55.409Z,66.63
2017-02-12T03:39:55.379Z,66.72
2017-02-12T03:40:55.367Z,66.63
2017-02-12T03:41:55.352Z,67
2017-02-12T03:42:55.337Z,66.72
2017-02-12T03:43:55.313Z,66.91
2017-02-12T03:44:55.310Z,66.25
2017-02-12T03:45:55.289Z,66.63
2017-02-12T03:46:55.279Z,66.53
2017-02-12T03:47:55.255Z,66.53
2017-02-12T03:48:55.243Z,66.35
2017-02-12T03:49:55.214Z,66.72
2017-02-12T03:50:55.206Z,67.47
2017-02-12T03:51:55.203Z,67.1
2017-02-12T03:52:55.183Z,66.91
2017-02-12T03:53:55.155Z,67.38
2017-02-12T03:54:55.141Z,66.44
2017-02-12T03:55:55.122Z,66.63
2017-02-12T03:56:55.118Z,66.72
2017-02-12T03:57:55.090Z,67
2017-02-12T03:58:55.066Z,67
2017-02-12T03:59:55.062Z,66.82
2017-02-12T04:00:55.042Z,67
2017-02-12T04:01:55.033Z,67.1
2017-02-12T04:02:55.010Z,67.57
2017-02-12T04:03:54.981Z,66.72
2017-02-12T04:04:54.973Z,67.57
2017-02-12T04:05:54.957Z,67.57
2017-02-12T04:06:54.946Z,66.82
2017-02-12T04:07:54.913Z,66.91
2017-02-12T04:08:54.904Z,66.63
2017-02-12T04:09:54.895Z,66.63
2017-02-12T04:10:54.867Z,66.72
2017-02-12T04:11:54.867Z,67.38
2017-02-12T04:12:54.837Z,67.47
2017-02-12T04:13:54.831Z,67.38
2017-02-12T04:14:54.796Z,67
2017-02-12T04:15:54.790Z,66.53
2017-02-12T04:16:54.778Z,66.82
2017-02-12T04:17:54.765Z,66.82
2017-02-12T04:18:54.746Z,66.72
2017-02-12T04:19:54.717Z,66.82
2017-02-12T04:20:54.713Z,66.35
2017-02-12T04:21:54.687Z,66.44
2017-02-12T04:22:54.674Z,66.35
2017-02-12T04:23:54.654Z,66.91
2017-02-12T04:24:54.643Z,66.53
2017-02-12T04:25:54.629Z,66.91
2017-02-12T04:26:54.614Z,67.1
2017-02-12T04:27:54.583Z,67.19
2017-02-12T04:28:54.581Z,67.1
2017-02-12T04:29:54.559Z,66.72
2017-02-12T04:30:54.541Z,66.72
2017-02-12T04:31:54.526Z,66.53
2017-02-12T04:32:54.502Z,66.35
2017-02-12T04:33:54.484Z,66.63
2017-02-12T04:34:54.480Z,66.53
2017-02-12T04:35:54.456Z,66.53
2017-02-12T04:36:54.440Z,66.44
2017-02-12T04:37:54.416Z,66.63
2017-02-12T04:38:54.420Z,66.53
2017-02-12T04:39:54.387Z,66.53
2017-02-12T04:40:54.383Z,66.82
2017-02-12T04:41:54.360Z,66.72
2017-02-12T04:42:54.357Z,66.25
2017-02-12T04:43:54.324Z,66.16
2017-02-12T04:44:54.307Z,66.25
2017-02-12T04:45:54.291Z,66.25
2017-02-12T04:46:54.288Z,66.16
2017-02-12T04:47:54.266Z,66.35
2017-02-12T04:48:54.241Z,66.53
2017-02-12T04:49:54.222Z,66.25
2017-02-12T04:50:54.206Z,66.44
2017-02-12T04:51:54.203Z,66.44
2017-02-12T04:52:54.179Z,66.44
2017-02-12T04:53:54.163Z,66.44
2017-02-12T04:54:54.144Z,66.44
2017-02-12T04:55:54.136Z,66.53
2017-02-12T04:56:54.110Z,66.82
2017-02-12T04:57:54.099Z,66.35
2017-02-12T04:58:54.078Z,67
2017-02-12T04:59:54.064Z,67.38
2017-02-12T05:00:54.039Z,67.29
2017-02-12T05:01:54.026Z,66.91
2017-02-12T05:02:54.019Z,66.91
2017-02-12T05:03:53.999Z,67.47
2017-02-12T05:04:53.981Z,67.47
2017-02-12T05:05:53.955Z,67
2017-02-12T05:06:53.937Z,67.19
2017-02-12T05:07:53.935Z,67.47
2017-02-12T05:08:53.910Z,67.47
2017-02-12T05:09:53.905Z,67.47
2017-02-12T05:10:53.870Z,67
2017-02-12T05:11:53.879Z,67.38
2017-02-12T05:12:53.852Z,67.76
2017-02-12T05:13:53.833Z,68.04
2017-02-12T05:14:53.813Z,67.57
2017-02-12T05:15:53.804Z,67.66
2017-02-12T05:16:53.787Z,67.66
2017-02-12T05:17:53.771Z,68.04
2017-02-12T05:18:53.740Z,68.33
2017-02-12T05:19:53.726Z,68.04
2017-02-12T05:20:53.745Z,68.04
2017-02-12T05:21:53.700Z,67.76
2017-02-12T05:22:53.688Z,68.14
2017-02-12T05:23:53.682Z,68.23
2017-02-12T05:24:53.648Z,68.04
2017-02-12T05:25:53.634Z,68.23
2017-02-12T05:26:53.606Z,68.33
2017-02-12T05:27:53.604Z,68.23
2017-02-12T05:28:53.569Z,68.23
2017-02-12T05:29:53.567Z,67.57
2017-02-12T05:30:53.541Z,67.76
2017-02-12T05:31:53.533Z,67.57
2017-02-12T05:32:53.521Z,67.95
2017-02-12T05:33:53.506Z,67.57
2017-02-12T05:34:53.481Z,67.66
2017-02-12T05:35:53.464Z,68.23
2017-02-12T05:36:53.452Z,67.95
2017-02-12T05:37:53.439Z,68.14
2017-02-12T05:38:53.458Z,68.14
2017-02-12T05:39:53.398Z,67.95
2017-02-12T05:40:53.384Z,67.85
2017-02-12T05:41:53.371Z,67.76
2017-02-12T05:42:53.346Z,68.33
2017-02-12T05:43:53.339Z,68.04
2017-02-12T05:44:53.308Z,67.85
2017-02-12T05:45:53.314Z,68.04
2017-02-12T05:46:53.272Z,68.23
2017-02-12T05:47:53.276Z,68.14
2017-02-12T05:48:52.859Z,68.33
2017-02-12T05:49:53.234Z,68.14
2017-02-12T05:50:53.213Z,68.23
2017-02-12T05:51:53.203Z,68.33
2017-02-12T05:52:53.176Z,67.76
2017-02-12T05:53:53.167Z,68.04
2017-02-12T05:54:53.150Z,68.04
2017-02-12T05:55:53.136Z,68.04
2017-02-12T05:56:53.110Z,68.04
2017-02-12T05:57:53.106Z,68.04
2017-02-12T05:58:53.080Z,68.23
2017-02-12T05:59:53.075Z,67.85
2017-02-12T06:00:53.039Z,67.57
2017-02-12T06:01:53.034Z,67.76
2017-02-12T06:02:53.016Z,67.76
2017-02-12T06:03:53.006Z,68.04
2017-02-12T06:04:52.981Z,67.66
2017-02-12T06:05:52.965Z,68.04
2017-02-12T06:06:52.947Z,68.04
2017-02-12T06:07:52.925Z,67.76
2017-02-12T06:08:52.913Z,68.14
2017-02-12T06:09:52.905Z,68.42
2017-02-12T06:10:52.886Z,68.14
2017-02-12T06:11:52.855Z,68.23
2017-02-12T06:12:52.856Z,68.23
2017-02-12T06:13:52.826Z,68.23
2017-02-12T06:14:52.817Z,67.76
2017-02-12T06:15:52.800Z,68.33
2017-02-12T06:16:52.786Z,67.85
2017-02-12T06:17:52.767Z,67.66
2017-02-12T06:18:52.751Z,68.23
2017-02-12T06:19:52.738Z,68.14
2017-02-12T06:20:52.721Z,68.23
2017-02-12T06:21:52.711Z,68.52
2017-02-12T06:22:52.682Z,68.42
2017-02-12T06:23:52.669Z,68.23
2017-02-12T06:24:52.654Z,68.23
2017-02-12T06:25:52.641Z,68.42
2017-02-12T06:26:52.622Z,68.33
2017-02-12T06:27:52.594Z,68.42
2017-02-12T06:28:52.587Z,68.52
2017-02-12T06:29:52.566Z,68.33
2017-02-12T06:30:52.551Z,68.33
2017-02-12T06:31:52.523Z,68.23
2017-02-12T06:32:52.128Z,67.95
2017-02-12T06:33:52.498Z,68.33
2017-02-12T06:34:52.482Z,68.04
2017-02-12T06:35:52.458Z,68.04
2017-02-12T06:36:52.445Z,67.85
2017-02-12T06:37:52.431Z,68.23
2017-02-12T06:38:52.417Z,68.23
2017-02-12T06:39:52.401Z,68.23
2017-02-12T06:40:52.379Z,68.14
2017-02-12T06:41:52.355Z,68.33
2017-02-12T06:42:52.358Z,68.04
2017-02-12T06:43:52.326Z,67.66
2017-02-12T06:44:52.323Z,68.14
2017-02-12T06:45:52.295Z,67.85
2017-02-12T06:46:52.286Z,68.14
2017-02-12T06:47:52.259Z,68.23
2017-02-12T06:48:52.252Z,68.33
2017-02-12T06:49:52.224Z,68.61
2017-02-12T06:50:52.217Z,68.42
2017-02-12T06:51:52.196Z,68.42
2017-02-12T06:52:52.192Z,68.71
2017-02-12T06:53:52.210Z,68.33
2017-02-12T06:54:52.155Z,68.71
2017-02-12T06:55:52.137Z,68.42
2017-02-12T06:56:52.111Z,68.52
2017-02-12T06:57:52.093Z,68.23
2017-02-12T06:58:52.082Z,68.52
2017-02-12T06:59:52.074Z,68.23
2017-02-12T07:00:52.052Z,68.14
2017-02-12T07:01:52.041Z,67.76
2017-02-12T07:02:52.011Z,67.38
2017-02-12T07:03:52.005Z,67.19
2017-02-12T07:04:51.982Z,67.57
2017-02-12T07:05:51.974Z,67.57
2017-02-12T07:06:51.940Z,67.57
2017-02-12T07:07:51.544Z,67.38
2017-02-12T07:08:51.910Z,67.57
2017-02-12T07:09:51.888Z,67.38
2017-02-12T07:10:51.888Z,67.57
2017-02-12T07:11:51.872Z,67.19
2017-02-12T07:12:51.849Z,67.47
2017-02-12T07:13:51.826Z,67.95
2017-02-12T07:14:51.817Z,67.66
2017-02-12T07:15:51.413Z,68.14
2017-02-12T07:16:51.787Z,68.04
2017-02-12T07:17:51.772Z,67.95
2017-02-12T07:18:51.743Z,68.23
2017-02-12T07:19:51.741Z,67.76
2017-02-12T07:20:51.719Z,67.95
2017-02-12T07:21:51.694Z,68.14
2017-02-12T07:22:51.687Z,68.14
2017-02-12T07:23:51.659Z,67.66
2017-02-12T07:24:51.659Z,67.47
2017-02-12T07:25:51.630Z,67.19
2017-02-12T07:26:51.626Z,67.1
2017-02-12T07:27:51.608Z,67.19
2017-02-12T07:28:51.589Z,67.1
2017-02-12T07:29:51.569Z,67.19
2017-02-12T07:30:51.553Z,67.29
2017-02-12T07:31:51.550Z,67.1
2017-02-12T07:32:51.520Z,67.29
2017-02-12T07:33:51.498Z,67.19
2017-02-12T07:34:51.497Z,67.38
2017-02-12T07:35:51.464Z,67.38
2017-02-12T07:36:51.455Z,67
2017-02-12T07:37:51.433Z,67.1
2017-02-12T07:38:51.431Z,67.19
2017-02-12T07:39:51.402Z,66.91
2017-02-12T07:40:51.392Z,67
2017-02-12T07:41:51.366Z,67.38
2017-02-12T07:42:51.362Z,67.47
2017-02-12T07:43:51.382Z,67.19
2017-02-12T07:44:51.323Z,67.19
2017-02-12T07:45:51.301Z,67.19
2017-02-12T07:46:51.292Z,67.19
2017-02-12T07:47:51.279Z,67.1
2017-02-12T07:48:51.250Z,67.57
2017-02-12T07:49:51.243Z,66.72
2017-02-12T07:50:51.223Z,66.94
2017-02-12T07:51:51.208Z,67.03
2017-02-12T07:52:51.184Z,66.56
2017-02-12T07:53:51.191Z,66.09
2017-02-12T07:54:51.153Z,66
2017-02-12T07:55:51.152Z,66.28
2017-02-12T07:56:51.133Z,66.38
2017-02-12T07:57:51.120Z,66.35
2017-02-12T07:58:51.089Z,66.35
2017-02-12T07:59:51.085Z,66.25
2017-02-12T08:00:51.061Z,66.35
2017-02-12T08:01:51.038Z,66.53
2017-02-12T08:02:51.023Z,66.25
2017-02-12T08:03:51.015Z,66.56
2017-02-12T08:04:50.996Z,66.38
2017-02-12T08:05:50.983Z,66.91
2017-02-12T08:06:50.960Z,66.63
2017-02-12T08:07:50.954Z,67.29
2017-02-12T08:08:50.925Z,66.91
2017-02-12T08:09:50.927Z,67.03
2017-02-12T08:10:50.892Z,66.94
2017-02-12T08:11:50.887Z,66.85
2017-02-12T08:12:50.865Z,66.38
2017-02-12T08:13:50.855Z,66.38
2017-02-12T08:14:50.829Z,66
2017-02-12T08:15:50.809Z,66.28
2017-02-12T08:16:50.809Z,66.38
2017-02-12T08:17:50.822Z,66.38
2017-02-12T08:18:50.387Z,66.28
2017-02-12T08:19:50.757Z,66.66
2017-02-12T08:20:50.746Z,65.62
2017-02-12T08:21:50.720Z,66.19
2017-02-12T08:22:50.713Z,65.62
2017-02-12T08:23:50.683Z,65.91
2017-02-12T08:24:50.676Z,65.91
2017-02-12T08:25:50.661Z,65.81
2017-02-12T08:26:50.635Z,65.91
2017-02-12T08:27:50.631Z,65.24
2017-02-12T08:28:50.611Z,65.15
2017-02-12T08:29:50.597Z,65.72
2017-02-12T08:30:50.573Z,66
2017-02-12T08:31:50.561Z,66.09
2017-02-12T08:32:50.552Z,65.91
2017-02-12T08:33:50.541Z,66.09
2017-02-12T08:34:50.523Z,66
2017-02-12T08:35:50.491Z,66
2017-02-12T08:36:50.485Z,65.81
2017-02-12T08:37:50.458Z,66.19
2017-02-12T08:38:50.454Z,65.53
2017-02-12T08:39:50.434Z,66
2017-02-12T08:40:50.422Z,65.91
2017-02-12T08:41:50.401Z,65.15
2017-02-12T08:42:50.394Z,65.43
2017-02-12T08:43:50.372Z,65.15
2017-02-12T08:44:50.352Z,64.96
2017-02-12T08:45:50.341Z,65.24
2017-02-12T08:46:50.325Z,64.86
2017-02-12T08:47:50.310Z,64.77
2017-02-12T08:48:50.291Z,64.86
2017-02-12T08:49:50.269Z,64.86
2017-02-12T08:50:50.263Z,64.39
2017-02-12T08:51:50.247Z,64.2
2017-02-12T08:52:50.230Z,64.48
2017-02-12T08:53:50.206Z,64.39
2017-02-12T08:54:50.205Z,64.67
2017-02-12T08:55:50.176Z,65.05
2017-02-12T08:56:50.166Z,64.29
2017-02-12T08:57:50.151Z,63.82
2017-02-12T08:58:50.145Z,63.64
2017-02-12T08:59:50.121Z,62.82
2017-02-12T09:00:50.101Z,63.01
2017-02-12T09:01:50.089Z,63.1
2017-02-12T09:02:50.082Z,63.39
2017-02-12T09:03:50.066Z,62.63
2017-02-12T09:04:50.039Z,63.1
2017-02-12T09:05:50.019Z,63.29
2017-02-12T09:06:50.011Z,63.29
2017-02-12T09:07:50.010Z,62.72
2017-02-12T09:08:49.974Z,62.82
2017-02-12T09:09:50.015Z,62.69
2017-02-12T09:10:49.941Z,62.63
2017-02-12T09:11:49.937Z,62.63
2017-02-12T09:12:49.919Z,62.72
2017-02-12T09:13:49.913Z,63.01
2017-02-12T09:14:49.882Z,63.29
2017-02-12T09:15:49.877Z,63.48
2017-02-12T09:16:49.861Z,62.72
2017-02-12T09:17:49.843Z,62.63
2017-02-12T09:18:49.836Z,63.1
2017-02-12T09:19:49.860Z,63.01
2017-02-12T09:20:49.795Z,63.1
2017-02-12T09:21:49.784Z,62.72
2017-02-12T09:22:49.760Z,62.82
2017-02-12T09:23:49.754Z,62.63
2017-02-12T09:24:49.733Z,63.01
2017-02-12T09:25:49.726Z,62.53
2017-02-12T09:26:49.701Z,62.53
2017-02-12T09:27:49.695Z,62.53
2017-02-12T09:28:49.676Z,62.72
2017-02-12T09:29:49.662Z,62.72
2017-02-12T09:30:49.637Z,62.63
2017-02-12T09:31:49.647Z,62.63
2017-02-12T09:32:49.615Z,62.72
2017-02-12T09:33:49.609Z,62.72
2017-02-12T09:34:49.586Z,62.63
2017-02-12T09:35:49.565Z,62.63
2017-02-12T09:36:49.557Z,62.44
2017-02-12T09:37:49.546Z,61.3
2017-02-12T09:38:49.529Z,61.58
2017-02-12T09:39:49.511Z,61.3
2017-02-12T09:40:49.496Z,60.83
2017-02-12T09:41:49.483Z,61.11
2017-02-12T09:42:49.464Z,60.64
2017-02-12T09:43:49.459Z,60.38
2017-02-12T09:44:49.434Z,60.19
2017-02-12T09:45:49.433Z,60.1
2017-02-12T09:46:49.407Z,60.19
2017-02-12T09:47:49.404Z,60.29
2017-02-12T09:48:49.375Z,60.1
2017-02-12T09:49:49.367Z,60.29
2017-02-12T09:50:49.350Z,60.1
2017-02-12T09:51:49.336Z,59.81
2017-02-12T09:52:49.327Z,59.34
2017-02-12T09:53:49.314Z,59.16
2017-02-12T09:54:49.293Z,59.34
2017-02-12T09:55:49.278Z,58.4
2017-02-12T09:56:49.271Z,58.49
2017-02-12T09:57:49.253Z,58.4
2017-02-12T09:58:49.236Z,58.68
2017-02-12T09:59:49.225Z,58.97
2017-02-12T10:00:49.215Z,58.4
2017-02-12T10:01:49.183Z,58.68
2017-02-12T10:02:49.184Z,58.21
2017-02-12T10:03:49.156Z,58.59
2017-02-12T10:04:49.157Z,58.3
2017-02-12T10:05:49.135Z,57.35
2017-02-12T10:06:49.127Z,57.64
2017-02-12T10:07:49.107Z,58.11
2017-02-12T10:08:49.104Z,58.11
2017-02-12T10:09:49.089Z,58.11
2017-02-12T10:10:49.071Z,58.78
2017-02-12T10:11:49.045Z,58.68
2017-02-12T10:12:49.045Z,59.06
2017-02-12T10:13:49.017Z,59.34
2017-02-12T10:14:49.023Z,59.34
2017-02-12T10:15:48.991Z,58.87
2017-02-12T10:16:48.988Z,59.34
2017-02-12T10:17:48.973Z,58.97
2017-02-12T10:18:48.962Z,58.4
2017-02-12T10:19:48.950Z,57.83
2017-02-12T10:20:48.922Z,57.48
2017-02-12T10:21:48.924Z,57.29
2017-02-12T10:22:48.911Z,57.45
2017-02-12T10:23:48.896Z,57.54
2017-02-12T10:24:48.875Z,57.54
2017-02-12T10:25:48.857Z,58.11
2017-02-12T10:26:48.839Z,58.11
2017-02-12T10:27:48.844Z,58.3
2017-02-12T10:28:48.821Z,58.3
2017-02-12T10:29:48.816Z,58.3
2017-02-12T10:30:48.795Z,57.64
2017-02-12T10:31:48.787Z,57.73
2017-02-12T10:32:48.759Z,57.83
2017-02-12T10:33:48.746Z,58.02
2017-02-12T10:34:48.743Z,58.49
2017-02-12T10:35:48.720Z,58.02
2017-02-12T10:36:48.714Z,58.11
2017-02-12T10:37:48.694Z,58.02
2017-02-12T10:38:48.687Z,58.3
2017-02-12T10:39:48.675Z,58.4
2017-02-12T10:40:48.656Z,58.4
2017-02-12T10:41:48.639Z,58.3
2017-02-12T10:42:48.622Z,58.21
2017-02-12T10:43:48.624Z,57.92
2017-02-12T10:44:48.603Z,58.02
2017-02-12T10:45:48.587Z,58.4
2017-02-12T10:46:48.586Z,58.11
2017-02-12T10:47:48.561Z,58.4
2017-02-12T10:48:48.559Z,58.4
2017-02-12T10:49:48.529Z,58.3
2017-02-12T10:50:48.525Z,58.02
2017-02-12T10:51:48.511Z,58.3
2017-02-12T10:52:48.489Z,58.02
2017-02-12T10:53:48.473Z,57.54
2017-02-12T10:54:48.478Z,57.54
2017-02-12T10:55:48.464Z,57.54
2017-02-12T10:56:48.438Z,57.73
2017-02-12T10:57:48.423Z,57.54
2017-02-12T10:58:48.418Z,57.54
2017-02-12T10:59:48.401Z,57.83
2017-02-12T11:00:48.389Z,58.4
2017-02-12T11:01:48.368Z,58.11
2017-02-12T11:02:48.362Z,58.4
2017-02-12T11:03:48.340Z,58.02
2017-02-12T11:04:48.345Z,58.02
2017-02-12T11:05:48.313Z,58.4
2017-02-12T11:06:48.320Z,57.92
2017-02-12T11:07:48.293Z,57.26
2017-02-12T11:08:48.287Z,57.54
2017-02-12T11:09:48.263Z,57.54
2017-02-12T11:10:48.261Z,57.73
2017-02-12T11:11:48.250Z,58.11
2017-02-12T11:12:48.220Z,58.3
2017-02-12T11:13:48.211Z,57.64
2017-02-12T11:14:48.195Z,58.02
2017-02-12T11:15:48.192Z,57.92
2017-02-12T11:16:48.170Z,58.02
2017-02-12T11:17:48.169Z,57.39
2017-02-12T11:18:48.148Z,57.29
2017-02-12T11:19:48.139Z,57.01
2017-02-12T11:20:48.108Z,57.01
2017-02-12T11:21:48.113Z,57.01
2017-02-12T11:22:48.095Z,56.91
2017-02-12T11:23:48.084Z,56.72
2017-02-12T11:24:48.062Z,55.96
2017-02-12T11:25:48.053Z,56.15
2017-02-12T11:26:48.043Z,56.15
2017-02-12T11:27:48.034Z,55.96
2017-02-12T11:28:48.007Z,55.96
2017-02-12T11:29:47.993Z,55.68
2017-02-12T11:30:47.976Z,56.06
2017-02-12T11:31:47.982Z,56.63
2017-02-12T11:32:47.963Z,56.15
2017-02-12T11:33:47.954Z,56.15
2017-02-12T11:34:47.931Z,56.15
2017-02-12T11:35:47.926Z,56.15
2017-02-12T11:36:47.946Z,56.06
2017-02-12T11:37:47.891Z,56.06
2017-02-12T11:38:47.882Z,56.15
2017-02-12T11:39:47.873Z,56.06
2017-02-12T11:40:47.852Z,56.15
2017-02-12T11:41:47.847Z,57.01
2017-02-12T11:42:47.817Z,56.72
2017-02-12T11:43:47.816Z,56.44
2017-02-12T11:44:47.811Z,56.34
2017-02-12T11:45:47.788Z,56.25
2017-02-12T11:46:47.783Z,56.34
2017-02-12T11:47:47.752Z,55.96
2017-02-12T11:48:47.751Z,55.58
2017-02-12T11:49:47.740Z,55.68
2017-02-12T11:50:47.714Z,55.77
2017-02-12T11:51:47.709Z,55.58
2017-02-12T11:52:47.691Z,55.68
2017-02-12T11:53:47.683Z,55.58
2017-02-12T11:54:47.668Z,55.68
2017-02-12T11:55:47.657Z,55.4
2017-02-12T11:56:47.643Z,55.58
2017-02-12T11:57:47.639Z,55.4
2017-02-12T11:58:47.619Z,55.21
2017-02-12T11:59:47.599Z,55.11
2017-02-12T12:00:47.588Z,55.3
2017-02-12T12:01:47.585Z,55.58
2017-02-12T12:02:47.570Z,55.4
2017-02-12T12:03:47.543Z,55.02
2017-02-12T12:04:47.546Z,55.4
2017-02-12T12:05:47.523Z,55.4
2017-02-12T12:06:47.519Z,55.68
2017-02-12T12:07:47.491Z,55.87
2017-02-12T12:08:47.490Z,55.68
2017-02-12T12:09:47.476Z,55.49
2017-02-12T12:10:47.469Z,54.93
2017-02-12T12:11:47.448Z,55.21
2017-02-12T12:12:47.450Z,55.02
2017-02-12T12:13:47.414Z,54.83
2017-02-12T12:14:47.414Z,54.74
2017-02-12T12:15:47.389Z,55.02
2017-02-12T12:16:47.388Z,55.49
2017-02-12T12:17:47.373Z,55.58
2017-02-12T12:18:47.364Z,55.68
2017-02-12T12:19:47.335Z,55.14
2017-02-12T12:20:47.338Z,54.95
2017-02-12T12:21:47.316Z,55.05
2017-02-12T12:22:47.303Z,54.76
2017-02-12T12:23:47.287Z,54.35
2017-02-12T12:24:47.288Z,54.35
2017-02-12T12:25:47.264Z,54.74
2017-02-12T12:26:47.259Z,54.55
2017-02-12T12:27:47.236Z,54.35
2017-02-12T12:28:47.224Z,54.35
2017-02-12T12:29:47.223Z,54.55
2017-02-12T12:30:47.194Z,54.74
2017-02-12T12:31:47.188Z,54.83
2017-02-12T12:32:47.179Z,55.21
2017-02-12T12:33:47.190Z,55.21
2017-02-12T12:34:47.154Z,55.11
2017-02-12T12:35:47.133Z,55.4
2017-02-12T12:36:47.128Z,55.11
2017-02-12T12:37:47.111Z,55.11
2017-02-12T12:38:47.098Z,55.49
2017-02-12T12:39:47.082Z,55.58
2017-02-12T12:40:47.070Z,56.25
2017-02-12T12:41:47.066Z,55.96
2017-02-12T12:42:47.039Z,56.53
2017-02-12T12:43:47.036Z,56.15
2017-02-12T12:44:47.017Z,56.15
2017-02-12T12:45:47.006Z,55.58
2017-02-12T12:46:46.979Z,55.96
2017-02-12T12:47:46.979Z,55.96
2017-02-12T12:48:46.963Z,56.15
2017-02-12T12:49:46.951Z,55.96
2017-02-12T12:50:46.939Z,55.58
2017-02-12T12:51:46.916Z,55.68
2017-02-12T12:52:46.917Z,55.49
2017-02-12T12:53:46.900Z,55.58
2017-02-12T12:54:46.897Z,55.58
2017-02-12T12:55:46.865Z,55.96
2017-02-12T12:56:46.868Z,55.96
2017-02-12T12:57:46.848Z,56.63
2017-02-12T12:58:46.835Z,56.53